WetterOnline ( https://www.wetteronline.de )

Wetter aktuell Fehmarn

Aktuelles Wetter: Westermarkelsdorf (9m)

6-stündlich | Neueste Meldungen
Ortszeit Temperatur Wetter
Mi, 19.06. 2:00 17.6° C wolkig
Di, 18.06. 20:00 20.1° C bewölkt
Di, 18.06. 14:00 25.8° C wolkig
Di, 18.06. 8:00 19.0° C leicht bewölkt
Di, 18.06. 2:00 15.5° C wolkenlos
Mo, 17.06. 20:00 19.6° C wolkenlos
Mo, 17.06. 14:00 21.4° C wolkenlos
Mo, 17.06. 8:00 18.2° C wolkenlos
Ortszeit Temperatur Wetter
Mi, 19.06. 7:30 20.8° C wolkig
Mi, 19.06. 7:20 20.8° C wolkig
Mi, 19.06. 7:10 20.4° C wolkig
Mi, 19.06. 7:00 19.0° C leicht bewölkt
Mi, 19.06. 6:50 19.0° C leicht bewölkt
Mi, 19.06. 6:40 18.4° C wolkig
Mi, 19.06. 6:30 17.4° C wolkig
Mi, 19.06. 6:00 16.5° C wolkenlos
Mi, 19.06. 5:30 16.2° C wolkenlos
Mi, 19.06. 5:00 16.1° C wolkenlos
Mi, 19.06. 4:30 16.5° C leicht bewölkt
Ortszeit Relative Feuchte Sichtweite
Mi, 19.06. 2:00 86% 24 km
Di, 18.06. 20:00 73% 23 km
Di, 18.06. 14:00 59% 9 km
Di, 18.06. 8:00 74% 8 km
Di, 18.06. 2:00 83% 35 km
Mo, 17.06. 20:00 64% 16 km
Mo, 17.06. 14:00 54% 15 km
Mo, 17.06. 8:00 70% 19 km
Ortszeit Relative Feuchte Sichtweite
Mi, 19.06. 7:30 69% 18 km
Mi, 19.06. 7:20 69% -
Mi, 19.06. 7:10 71% -
Mi, 19.06. 7:00 80% 12 km
Mi, 19.06. 6:50 80% -
Mi, 19.06. 6:40 81% -
Mi, 19.06. 6:30 85% 12 km
Mi, 19.06. 6:00 88% 11 km
Mi, 19.06. 5:30 89% 14 km
Mi, 19.06. 5:00 90% 16 km
Mi, 19.06. 4:30 89% 14 km
Ortszeit Niederschlagsmenge Niederschlagsart
Mi, 19.06. 2:00 3 l/m2 in 6 Std. Regen
Di, 18.06. 20:00 0.0 l/m2 in 12 Std. -
Di, 18.06. 14:00 0.0 l/m2 in 6 Std. -
Di, 18.06. 8:00 0.0 l/m2 in 12 Std. -
Di, 18.06. 2:00 0.0 l/m2 in 6 Std. -
Mo, 17.06. 20:00 0.0 l/m2 in 3 Std. -
Mo, 17.06. 14:00 0.0 l/m2 in 3 Std. -
Mo, 17.06. 8:00 0.0 l/m2 in 12 Std. -
Ortszeit Niederschlagsmenge Niederschlagsart
Mi, 19.06. 7:30 0.0 l/m2 in 1 Std. -
Mi, 19.06. 7:20 keine Meldung -
Mi, 19.06. 7:10 keine Meldung -
Mi, 19.06. 7:00 0.0 l/m2 in 1 Std. -
Mi, 19.06. 6:50 keine Meldung -
Mi, 19.06. 6:40 keine Meldung -
Mi, 19.06. 6:30 0.0 l/m2 in 1 Std. -
Mi, 19.06. 6:00 0.0 l/m2 in 1 Std. -
Mi, 19.06. 5:30 0.0 l/m2 in 1 Std. -
Mi, 19.06. 5:00 0.0 l/m2 in 1 Std. -
Mi, 19.06. 4:30 0.0 l/m2 in 1 Std. -
Ortszeit Stärke Spitze Richtung
km/h Bft. km/h Grad Sektor
Mi, 19.06. 2:00 14 3 36 110° O
Di, 18.06. 20:00 28 4 44 310° NW
Di, 18.06. 14:00 15 3 33 160° S
Di, 18.06. 8:00 19 3 33 150° SO
Di, 18.06. 2:00 17 3 22 130° SO
Mo, 17.06. 20:00 15 3 26 110° O
Mo, 17.06. 14:00 7 2 25 300° NW
Mo, 17.06. 8:00 7 2 25 210° SW
Ortszeit Stärke Spitze Richtung
km/h Bft. km/h Grad Sektor
Mi, 19.06. 7:30 11 2 18 150° SO
Mi, 19.06. 7:20 11 2 - 150° SO
Mi, 19.06. 7:10 11 2 - 150° SO
Mi, 19.06. 7:00 11 2 22 140° SO
Mi, 19.06. 6:50 11 2 - 140° SO
Mi, 19.06. 6:40 11 2 - 140° SO
Mi, 19.06. 6:30 14 3 22 130° SO
Mi, 19.06. 6:00 15 3 20 130° SO
Mi, 19.06. 5:30 13 3 17 130° SO
Mi, 19.06. 5:00 14 3 22 130° SO
Mi, 19.06. 4:30 17 3 20 110° O
Ortszeit Untergrenze Bedeckung Gattung
total tief tief mittel hoch
Mi, 19.06. 2:00 2100 m 8/8 1/8 - - -
Di, 18.06. 20:00 2100 m 8/8 7/8 - - -
Di, 18.06. 14:00 2700 m 6/8 4/8 - - -
Di, 18.06. 8:00 2700 m 7/8 1/8 - - -
Di, 18.06. 2:00 - 0/8 0/8 - - -
Mo, 17.06. 20:00 - 0/8 0/8 - - -
Mo, 17.06. 14:00 - 0/8 0/8 - - -
Mo, 17.06. 8:00 - 0/8 0/8 - - -
Ortszeit Bedeckungsgrad in Achtel und Wolkenuntergrenze
Mi, 19.06. 7:30 7(7200m) 8(7800m) 8(9000m)
Mi, 19.06. 7:20 7(7200m) 8(7800m) 8(9000m)
Mi, 19.06. 7:10 8(7500m) 8(9000m)
Mi, 19.06. 7:00 6(7800m) 6(8400m) 6(9000m)
Mi, 19.06. 6:50 6(7800m) 6(8400m) 6(9000m)
Mi, 19.06. 6:40 2(6600m) 6(8100m)
Mi, 19.06. 6:30 4(6600m) 5(7800m) 7(8400m)
Mi, 19.06. 6:00 1(8700m)
Mi, 19.06. 5:30 keine Wolken
Mi, 19.06. 5:00 keine Wolken
Mi, 19.06. 4:30 3(6000m)
Ortszeit Luftdruck NN (hPa) Tendenz (hPa in 3 Std.)
Mi, 19.06. 2:00 1012 - 2,5
Di, 18.06. 20:00 1014 - 0,2
Di, 18.06. 14:00 1016 - 0,9
Di, 18.06. 8:00 1018 - 0,7
Di, 18.06. 2:00 1020 - 0,5
Mo, 17.06. 20:00 1021 - 1,0
Mo, 17.06. 14:00 1022 - 0,3
Mo, 17.06. 8:00 1022 + 0,6
Ortszeit Luftdruck NN (hPa) Tendenz (hPa in 3 Std.)
Mi, 19.06. 7:30 1010 - 1,1
Mi, 19.06. 7:20 1010 keine Meldung
Mi, 19.06. 7:10 1010 keine Meldung
Mi, 19.06. 7:00 1010 - 1,2
Mi, 19.06. 6:50 1010 keine Meldung
Mi, 19.06. 6:40 1010 keine Meldung
Mi, 19.06. 6:30 1011 - 1,2
Mi, 19.06. 6:00 1011 - 1,2
Mi, 19.06. 5:30 1011 - 1,1
Mi, 19.06. 5:00 1011 - 1,2
Mi, 19.06. 4:30 1011 - 1,3
Ortszeit Schneehöhe (cm)
Mi, 19.06. 2:00 -
Di, 18.06. 20:00 -
Di, 18.06. 14:00 -
Di, 18.06. 8:00 -
Di, 18.06. 2:00 -
Mo, 17.06. 20:00 -
Mo, 17.06. 14:00 -
Mo, 17.06. 8:00 -
Ortszeit Schneehöhe (cm)
Mi, 19.06. 7:30 -
Mi, 19.06. 7:20 -
Mi, 19.06. 7:10 -
Mi, 19.06. 7:00 -
Mi, 19.06. 6:50 -
Mi, 19.06. 6:40 -
Mi, 19.06. 6:30 -
Mi, 19.06. 6:00 -
Mi, 19.06. 5:30 -
Mi, 19.06. 5:00 -
Mi, 19.06. 4:30 -
Link zu dieser Seite / Seite empfehlen

Das Wetter in ...